Time;durP1;ratioP1;P1;durP2;ratioP2;P2;SDS_P1;SDS_P2;PMS_P1;PMS_P2;Temp;Humidity;BMP_temperature;BMP_pressure;BME280_temperature;BME280_humidity;BME280_pressure;Samples;Min_cycle;Max_cycle;Signal;HPM_P1;HPM_P2
2024/01/11 00:01:12;;;;;;;16.48;15.60;;;;;;;;;;5030699;28;20105;-51
2024/01/11 00:03:37;;;;;;;15.65;14.85;;;;;;;;;;5026101;28;20025;-55
2024/01/11 00:06:04;;;;;;;15.07;14.35;;;;;;;;;;5031909;28;20025;-56
2024/01/11 00:08:29;;;;;;;16.75;15.90;;;;;;;;;;5032267;28;20477;-54
2024/01/11 00:10:54;;;;;;;15.50;14.73;;;;;;;;;;5032723;28;20091;-56
2024/01/11 00:13:20;;;;;;;17.13;16.33;;;;;;;;;;5031587;28;20029;-55
2024/01/11 00:15:45;;;;;;;17.67;16.77;;;;;;;;;;5024318;28;20436;-57
2024/01/11 00:18:10;;;;;;;17.63;16.63;;;;;;;;;;5025176;28;20046;-53
2024/01/11 00:20:36;;;;;;;17.67;16.73;;;;;;;;;;5032536;28;20010;-54
2024/01/11 00:23:01;;;;;;;16.17;15.38;;;;;;;;;;5031008;28;20021;-54
2024/01/11 00:25:27;;;;;;;17.67;16.67;;;;;;;;;;5031721;28;20436;-56
2024/01/11 00:27:53;;;;;;;16.85;16.05;;;;;;;;;;5030514;28;20030;-55
2024/01/11 00:30:18;;;;;;;16.55;15.75;;;;;;;;;;5030901;28;20649;-56
2024/01/11 00:32:45;;;;;;;19.73;18.42;;;;;;;;;;5029683;28;20099;-55
2024/01/11 00:35:11;;;;;;;16.20;15.40;;;;;;;;;;5031938;28;20037;-56
2024/01/11 00:37:37;;;;;;;16.95;16.05;;;;;;;;;;5031144;28;20044;-56
2024/01/11 00:40:02;;;;;;;17.67;16.77;;;;;;;;;;5031876;28;20041;-53
2024/01/11 00:42:27;;;;;;;18.38;17.38;;;;;;;;;;5032054;28;20105;-53
2024/01/11 00:44:53;;;;;;;17.73;16.77;;;;;;;;;;5032454;28;20453;-56
2024/01/11 00:47:18;;;;;;;17.13;16.23;;;;;;;;;;5029495;28;20032;-53
2024/01/11 00:49:44;;;;;;;20.15;18.88;;;;;;;;;;5034722;28;20071;-56
2024/01/11 00:52:09;;;;;;;16.50;15.70;;;;;;;;;;5031801;28;20370;-54
2024/01/11 00:54:35;;;;;;;17.33;16.42;;;;;;;;;;5027441;28;20104;-57
2024/01/11 00:57:00;;;;;;;17.10;16.27;;;;;;;;;;5031548;28;20017;-52
2024/01/11 00:59:26;;;;;;;17.75;16.85;;;;;;;;;;5031595;28;20469;-55
2024/01/11 01:01:51;;;;;;;17.15;16.35;;;;;;;;;;5024972;28;20030;-53
2024/01/11 01:04:17;;;;;;;18.35;17.45;;;;;;;;;;5030965;28;20140;-55
2024/01/11 01:06:42;;;;;;;17.60;16.70;;;;;;;;;;5031629;28;20696;-55
2024/01/11 01:09:08;;;;;;;19.73;18.65;;;;;;;;;;5031411;28;20477;-52
2024/01/11 01:11:33;;;;;;;19.88;18.77;;;;;;;;;;5031669;28;20017;-57
2024/01/11 01:14:00;;;;;;;21.20;20.13;;;;;;;;;;5031357;28;20025;-52
2024/01/11 01:16:25;;;;;;;20.48;19.38;;;;;;;;;;5021102;28;20033;-55
2024/01/11 01:18:50;;;;;;;20.45;19.40;;;;;;;;;;5024494;28;20030;-55
2024/01/11 01:21:16;;;;;;;21.10;20.10;;;;;;;;;;5030006;28;20115;-54
2024/01/11 01:23:41;;;;;;;21.10;20.00;;;;;;;;;;5031384;28;20025;-52
2024/01/11 01:26:06;;;;;;;20.85;19.77;;;;;;;;;;5029748;28;20033;-56
2024/01/11 01:28:32;;;;;;;20.77;19.67;;;;;;;;;;5030170;28;20084;-55
2024/01/11 01:30:57;;;;;;;22.02;20.92;;;;;;;;;;5031376;28;20032;-55
2024/01/11 01:33:23;;;;;;;20.33;19.33;;;;;;;;;;5026214;28;20041;-53
2024/01/11 01:35:48;;;;;;;19.60;18.60;;;;;;;;;;5029845;28;20507;-55
2024/01/11 01:38:13;;;;;;;19.55;18.55;;;;;;;;;;5034739;28;20508;-55
2024/01/11 01:40:39;;;;;;;22.23;21.00;;;;;;;;;;5029281;28;20473;-50
2024/01/11 01:43:06;;;;;;;20.23;19.20;;;;;;;;;;5041109;28;20105;-53
2024/01/11 01:45:32;;;;;;;19.55;18.55;;;;;;;;;;5034332;28;20040;-54
2024/01/11 01:47:57;;;;;;;19.55;18.55;;;;;;;;;;5032641;28;20029;-56
2024/01/11 01:50:23;;;;;;;19.95;18.95;;;;;;;;;;5032696;28;20033;-55
2024/01/11 01:52:48;;;;;;;19.95;18.95;;;;;;;;;;5028652;28;20370;-54
2024/01/11 01:55:14;;;;;;;20.92;19.88;;;;;;;;;;5034825;28;20067;-57
2024/01/11 01:57:40;;;;;;;20.27;19.17;;;;;;;;;;5030822;28;20025;-54
2024/01/11 02:00:06;;;;;;;20.10;19.10;;;;;;;;;;5031377;28;20156;-54
2024/01/11 02:02:33;;;;;;;18.70;17.77;;;;;;;;;;5030866;28;20045;-54
2024/01/11 02:04:59;;;;;;;18.70;17.80;;;;;;;;;;5028890;28;20072;-53
2024/01/11 02:07:24;;;;;;;18.83;17.92;;;;;;;;;;5031679;28;20029;-52
2024/01/11 02:09:50;;;;;;;20.02;19.00;;;;;;;;;;5030599;28;20420;-56
2024/01/11 02:12:15;;;;;;;19.63;18.63;;;;;;;;;;5032120;28;20434;-55
2024/01/11 02:14:41;;;;;;;19.73;18.70;;;;;;;;;;5030836;28;20091;-56
2024/01/11 02:17:06;;;;;;;19.70;18.70;;;;;;;;;;5030716;28;20057;-54
2024/01/11 02:19:33;;;;;;;20.90;19.80;;;;;;;;;;5030785;28;20100;-52
2024/01/11 02:22:00;;;;;;;21.70;20.52;;;;;;;;;;5027308;28;20452;-54
2024/01/11 02:24:27;;;;;;;22.35;21.15;;;;;;;;;;5031845;28;20021;-58
2024/01/11 02:26:59;;;;;;;21.23;20.23;;;;;;;;;;5023495;28;20037;-55
2024/01/11 02:29:25;;;;;;;21.60;20.58;;;;;;;;;;5035048;28;20057;-53
2024/01/11 02:31:50;;;;;;;21.90;20.80;;;;;;;;;;5036912;28;20072;-55
2024/01/11 02:34:16;;;;;;;22.30;21.20;;;;;;;;;;5037627;28;20025;-54
2024/01/11 02:36:41;;;;;;;21.35;20.25;;;;;;;;;;5036847;28;20374;-52
2024/01/11 02:39:07;;;;;;;21.77;20.58;;;;;;;;;;5034350;28;20017;-51
2024/01/11 02:41:32;;;;;;;24.17;22.98;;;;;;;;;;5031840;28;20037;-54
2024/01/11 02:43:58;;;;;;;25.05;23.75;;;;;;;;;;5043066;28;20021;-55
2024/01/11 02:46:23;;;;;;;21.83;20.83;;;;;;;;;;5033978;28;20542;-56
2024/01/11 02:48:48;;;;;;;22.92;21.80;;;;;;;;;;5043714;28;20032;-51
2024/01/11 02:51:14;;;;;;;23.33;22.13;;;;;;;;;;5035168;28;20049;-50
2024/01/11 02:53:39;;;;;;;24.63;23.33;;;;;;;;;;5030820;28;20048;-53
2024/01/11 02:56:04;;;;;;;21.92;20.80;;;;;;;;;;5033047;28;20025;-55
2024/01/11 02:58:30;;;;;;;21.42;20.33;;;;;;;;;;5033524;28;20029;-55
2024/01/11 03:00:55;;;;;;;21.63;20.52;;;;;;;;;;5034029;28;20021;-51
2024/01/11 03:03:20;;;;;;;22.38;21.25;;;;;;;;;;5033224;28;20017;-54
2024/01/11 03:05:46;;;;;;;22.45;21.25;;;;;;;;;;5033639;28;20029;-52
2024/01/11 03:08:11;;;;;;;22.73;21.52;;;;;;;;;;5033649;28;20033;-55
2024/01/11 03:10:40;;;;;;;25.55;24.15;;;;;;;;;;5033622;28;20025;-54
2024/01/11 03:13:08;;;;;;;23.90;22.65;;;;;;;;;;5026976;28;20041;-56
2024/01/11 03:15:33;;;;;;;24.90;23.60;;;;;;;;;;5035173;28;20112;-56
2024/01/11 03:17:58;;;;;;;24.52;23.23;;;;;;;;;;5034035;28;20565;-56
2024/01/11 03:20:24;;;;;;;23.90;22.70;;;;;;;;;;5031852;28;20032;-55
2024/01/11 03:22:52;;;;;;;21.95;20.85;;;;;;;;;;5033811;28;20028;-54
2024/01/11 03:25:18;;;;;;;21.52;20.50;;;;;;;;;;5034691;28;20025;-56
2024/01/11 03:27:43;;;;;;;24.20;23.00;;;;;;;;;;5033613;28;20033;-55
2024/01/11 03:30:09;;;;;;;21.10;20.10;;;;;;;;;;5033292;28;20013;-53
2024/01/11 03:32:34;;;;;;;22.83;21.63;;;;;;;;;;5029808;28;20432;-52
2024/01/11 03:35:00;;;;;;;22.92;21.73;;;;;;;;;;5023302;28;20030;-54
2024/01/11 03:37:25;;;;;;;21.80;20.65;;;;;;;;;;5029989;28;20057;-57
2024/01/11 03:39:50;;;;;;;22.02;20.90;;;;;;;;;;5027741;28;20013;-51
2024/01/11 03:42:15;;;;;;;21.88;20.77;;;;;;;;;;5031448;28;20444;-51
2024/01/11 03:44:41;;;;;;;23.70;22.52;;;;;;;;;;5033436;28;20025;-52
2024/01/11 03:47:06;;;;;;;19.98;18.98;;;;;;;;;;5032998;28;20481;-55
2024/01/11 03:49:32;;;;;;;19.70;18.70;;;;;;;;;;5035384;28;20098;-56
2024/01/11 03:51:57;;;;;;;20.27;19.27;;;;;;;;;;5032910;28;20477;-54
2024/01/11 03:54:23;;;;;;;19.90;18.90;;;;;;;;;;5032279;28;20476;-57
2024/01/11 03:56:48;;;;;;;22.50;21.40;;;;;;;;;;5032817;28;20032;-54
2024/01/11 03:59:14;;;;;;;22.13;21.00;;;;;;;;;;5030453;28;20025;-53
2024/01/11 04:01:42;;;;;;;22.15;21.00;;;;;;;;;;5028705;28;20063;-55
2024/01/11 04:04:08;;;;;;;22.70;21.42;;;;;;;;;;5029691;28;20027;-54
2024/01/11 04:06:33;;;;;;;24.17;22.77;;;;;;;;;;5013115;28;20036;-54
2024/01/11 04:08:58;;;;;;;20.58;19.48;;;;;;;;;;5028504;28;20045;-57
2024/01/11 04:11:27;;;;;;;20.27;19.27;;;;;;;;;;5032531;28;20029;-56
2024/01/11 04:13:52;;;;;;;20.30;19.27;;;;;;;;;;5032987;28;20123;-54
2024/01/11 04:16:17;;;;;;;21.75;20.55;;;;;;;;;;5029873;28;20022;-54
2024/01/11 04:18:43;;;;;;;21.45;20.35;;;;;;;;;;5030191;28;20079;-54
2024/01/11 04:21:19;;;;;;;23.25;22.05;;;;;;;;;;5037151;28;20021;-53
2024/01/11 04:23:44;;;;;;;22.50;21.30;;;;;;;;;;5044730;28;20419;-54
2024/01/11 04:26:09;;;;;;;23.00;21.77;;;;;;;;;;5032789;28;20018;-54
2024/01/11 04:28:36;;;;;;;22.80;21.60;;;;;;;;;;5039358;28;20386;-54
2024/01/11 04:31:02;;;;;;;23.45;22.15;;;;;;;;;;5030480;28;20033;-52
2024/01/11 04:33:27;;;;;;;23.63;22.33;;;;;;;;;;5028957;28;20414;-56
2024/01/11 04:35:52;;;;;;;23.58;22.33;;;;;;;;;;5034944;28;20090;-56
2024/01/11 04:38:18;;;;;;;23.17;21.88;;;;;;;;;;5030842;28;20369;-54
2024/01/11 04:40:43;;;;;;;23.77;22.48;;;;;;;;;;5031853;28;20092;-55
2024/01/11 04:43:08;;;;;;;25.45;24.05;;;;;;;;;;5031051;28;20114;-56
2024/01/11 04:45:34;;;;;;;24.13;22.83;;;;;;;;;;5032275;28;20022;-54
2024/01/11 04:47:59;;;;;;;23.15;21.85;;;;;;;;;;5024747;28;20112;-57
2024/01/11 04:50:25;;;;;;;23.13;21.92;;;;;;;;;;5033146;28;20485;-56
2024/01/11 04:52:50;;;;;;;21.23;20.13;;;;;;;;;;5033304;28;20025;-52
2024/01/11 04:55:16;;;;;;;21.63;20.52;;;;;;;;;;5039447;28;20033;-55
2024/01/11 04:57:41;;;;;;;21.55;20.42;;;;;;;;;;5031273;28;20370;-56
2024/01/11 05:00:07;;;;;;;25.25;23.83;;;;;;;;;;5034495;28;20738;-54
2024/01/11 05:02:32;;;;;;;23.48;22.27;;;;;;;;;;5033033;28;20018;-55
2024/01/11 05:04:58;;;;;;;23.48;22.27;;;;;;;;;;5038558;28;20021;-53
2024/01/11 05:07:23;;;;;;;24.90;23.55;;;;;;;;;;5025935;28;20023;-55
2024/01/11 05:09:48;;;;;;;26.02;24.50;;;;;;;;;;5033507;28;20087;-54
2024/01/11 05:12:16;;;;;;;23.58;22.27;;;;;;;;;;5032366;28;20033;-54
2024/01/11 05:14:41;;;;;;;22.27;21.17;;;;;;;;;;5030458;28;20099;-57
2024/01/11 05:17:07;;;;;;;24.25;22.95;;;;;;;;;;5029582;28;20041;-57
2024/01/11 05:19:33;;;;;;;23.13;21.92;;;;;;;;;;5024809;28;20112;-54
2024/01/11 05:21:58;;;;;;;23.20;22.00;;;;;;;;;;5028264;28;20545;-55
2024/01/11 05:24:25;;;;;;;23.55;22.40;;;;;;;;;;5027000;28;20032;-55
2024/01/11 05:26:50;;;;;;;23.02;21.88;;;;;;;;;;5026365;28;20104;-55
2024/01/11 05:29:16;;;;;;;24.67;23.27;;;;;;;;;;5027856;28;20033;-56
2024/01/11 05:31:41;;;;;;;25.08;23.67;;;;;;;;;;5031537;28;20025;-55
2024/01/11 05:34:06;;;;;;;25.17;23.77;;;;;;;;;;5022120;28;20026;-54
2024/01/11 05:36:32;;;;;;;29.15;27.23;;;;;;;;;;5021904;28;20087;-52
2024/01/11 05:38:57;;;;;;;22.77;21.58;;;;;;;;;;5031025;28;20022;-53
2024/01/11 05:41:22;;;;;;;25.85;24.52;;;;;;;;;;5032292;28;20018;-55
2024/01/11 05:43:48;;;;;;;25.77;24.27;;;;;;;;;;5030103;28;20477;-54
2024/01/11 05:46:13;;;;;;;24.98;23.58;;;;;;;;;;5024651;28;20033;-55
2024/01/11 05:48:39;;;;;;;22.52;21.23;;;;;;;;;;5028124;28;20029;-54
2024/01/11 05:51:04;;;;;;;22.88;21.63;;;;;;;;;;5023650;28;20025;-56
2024/01/11 05:53:29;;;;;;;23.50;22.10;;;;;;;;;;5036817;28;20481;-55
2024/01/11 05:55:55;;;;;;;21.52;20.30;;;;;;;;;;5035127;28;20052;-54
2024/01/11 05:58:20;;;;;;;22.30;21.10;;;;;;;;;;5035176;28;20488;-54
2024/01/11 06:00:46;;;;;;;21.83;20.63;;;;;;;;;;5030093;28;20030;-55
2024/01/11 06:03:15;;;;;;;21.30;20.17;;;;;;;;;;5024408;28;20024;-52
2024/01/11 06:05:40;;;;;;;20.55;19.45;;;;;;;;;;5030059;28;20155;-53
2024/01/11 06:08:05;;;;;;;22.67;21.38;;;;;;;;;;5031490;28;20527;-55
2024/01/11 06:10:31;;;;;;;18.83;17.73;;;;;;;;;;5027377;28;20397;-55
2024/01/11 06:12:56;;;;;;;14.00;13.25;;;;;;;;;;5029040;28;20545;-52
2024/01/11 06:15:22;;;;;;;13.18;12.48;;;;;;;;;;5024468;28;20028;-54
2024/01/11 06:17:47;;;;;;;12.57;11.88;;;;;;;;;;5034288;28;20045;-55
2024/01/11 06:20:12;;;;;;;11.77;11.10;;;;;;;;;;5021098;28;20025;-54
2024/01/11 06:22:38;;;;;;;11.27;10.57;;;;;;;;;;5021676;28;20560;-56
2024/01/11 06:25:03;;;;;;;10.52;9.88;;;;;;;;;;5025925;28;20018;-55
2024/01/11 06:27:29;;;;;;;9.20;8.70;;;;;;;;;;5027578;28;20029;-55
2024/01/11 06:29:54;;;;;;;9.52;8.93;;;;;;;;;;5025669;28;20101;-56
2024/01/11 06:32:19;;;;;;;9.00;8.50;;;;;;;;;;5022059;28;20034;-55
2024/01/11 06:34:45;;;;;;;8.35;7.95;;;;;;;;;;5027077;28;20116;-55
2024/01/11 06:37:11;;;;;;;8.88;8.40;;;;;;;;;;5024550;28;20025;-55
2024/01/11 06:39:36;;;;;;;9.27;8.77;;;;;;;;;;5021459;28;20422;-56
2024/01/11 06:42:02;;;;;;;10.30;9.70;;;;;;;;;;5025635;28;20017;-56
2024/01/11 06:44:27;;;;;;;9.38;8.88;;;;;;;;;;5021214;28;20084;-55
2024/01/11 06:46:53;;;;;;;9.38;8.93;;;;;;;;;;5017302;28;20389;-54
2024/01/11 06:49:18;;;;;;;9.30;8.90;;;;;;;;;;5023168;28;20025;-57
2024/01/11 06:51:43;;;;;;;9.75;9.25;;;;;;;;;;5026437;28;20108;-55
2024/01/11 06:54:09;;;;;;;10.25;9.75;;;;;;;;;;5026227;28;20440;-55
2024/01/11 06:56:34;;;;;;;11.05;10.48;;;;;;;;;;5027563;28;20029;-54
2024/01/11 06:58:59;;;;;;;11.05;10.48;;;;;;;;;;5026977;28;20637;-57
2024/01/11 07:01:25;;;;;;;11.45;10.85;;;;;;;;;;5027710;28;20021;-56
2024/01/11 07:03:50;;;;;;;9.73;9.32;;;;;;;;;;5028101;28;20022;-54
2024/01/11 07:06:16;;;;;;;10.52;10.02;;;;;;;;;;5027308;28;20114;-57
2024/01/11 07:08:41;;;;;;;11.00;10.50;;;;;;;;;;5023723;28;20021;-55
2024/01/11 07:11:07;;;;;;;11.98;11.38;;;;;;;;;;5022996;28;20040;-56
2024/01/11 07:13:32;;;;;;;10.82;10.32;;;;;;;;;;5025694;28;20022;-56
2024/01/11 07:15:58;;;;;;;10.88;10.38;;;;;;;;;;5025105;28;20020;-56
2024/01/11 07:18:24;;;;;;;12.15;11.55;;;;;;;;;;5028533;28;20570;-55
2024/01/11 07:20:50;;;;;;;11.90;11.30;;;;;;;;;;5034599;28;20100;-54
2024/01/11 07:23:15;;;;;;;12.88;12.27;;;;;;;;;;5026987;28;20470;-53
2024/01/11 07:25:41;;;;;;;12.63;12.02;;;;;;;;;;5024409;28;20096;-56
2024/01/11 07:28:06;;;;;;;11.70;11.20;;;;;;;;;;5041852;28;20029;-56
2024/01/11 07:30:32;;;;;;;11.80;11.30;;;;;;;;;;5033003;28;20025;-59
2024/01/11 07:32:57;;;;;;;11.88;11.38;;;;;;;;;;5032795;28;20064;-56
2024/01/11 07:35:23;;;;;;;11.70;11.20;;;;;;;;;;5034189;28;20115;-56
2024/01/11 07:37:49;;;;;;;11.43;10.93;;;;;;;;;;5029158;28;20465;-57
2024/01/11 07:40:15;;;;;;;12.00;11.50;;;;;;;;;;5025390;28;20013;-56
2024/01/11 07:42:40;;;;;;;13.20;12.60;;;;;;;;;;5026752;28;20025;-54
2024/01/11 07:45:06;;;;;;;14.02;13.32;;;;;;;;;;5023280;28;20048;-61
2024/01/11 07:47:32;;;;;;;12.57;11.98;;;;;;;;;;5028667;28;20034;-64
2024/01/11 07:49:59;;;;;;;12.85;12.25;;;;;;;;;;5030948;28;20057;-62
2024/01/11 07:52:24;;;;;;;12.45;11.85;;;;;;;;;;5021815;28;20018;-63
2024/01/11 07:54:50;;;;;;;12.70;12.10;;;;;;;;;;5021654;28;20026;-63
2024/01/11 07:57:15;;;;;;;12.40;11.80;;;;;;;;;;5030416;28;20437;-63
2024/01/11 07:59:41;;;;;;;12.50;11.90;;;;;;;;;;5032284;28;20558;-63
2024/01/11 08:02:07;;;;;;;12.57;11.98;;;;;;;;;;5031110;28;20113;-62
2024/01/11 08:04:32;;;;;;;12.68;12.07;;;;;;;;;;5029035;28;20026;-60
2024/01/11 08:07:01;;;;;;;12.15;11.65;;;;;;;;;;5030431;28;20035;-63
2024/01/11 08:09:27;;;;;;;12.27;11.77;;;;;;;;;;5023837;28;20037;-63
2024/01/11 08:11:54;;;;;;;12.10;11.60;;;;;;;;;;5029145;28;20022;-61
2024/01/11 08:14:20;;;;;;;12.15;11.65;;;;;;;;;;5025271;28;20025;-63
2024/01/11 08:16:45;;;;;;;12.18;11.68;;;;;;;;;;5010648;28;20610;-61
2024/01/11 08:19:10;;;;;;;12.50;11.90;;;;;;;;;;5022061;28;20117;-61
2024/01/11 08:21:36;;;;;;;12.32;11.80;;;;;;;;;;5030833;28;20083;-62
2024/01/11 08:24:02;;;;;;;12.88;12.27;;;;;;;;;;5029935;28;20085;-61
2024/01/11 08:26:28;;;;;;;12.90;12.30;;;;;;;;;;5026049;28;20093;-61
2024/01/11 08:28:53;;;;;;;12.40;11.82;;;;;;;;;;5034156;28;20036;-62
2024/01/11 08:31:19;;;;;;;12.00;11.50;;;;;;;;;;5027802;28;20025;-60
2024/01/11 08:33:45;;;;;;;12.13;11.63;;;;;;;;;;5033858;28;20025;-63
2024/01/11 08:36:11;;;;;;;12.13;11.63;;;;;;;;;;5039307;28;20026;-63
2024/01/11 08:38:36;;;;;;;12.30;11.80;;;;;;;;;;5035715;28;20120;-61
2024/01/11 08:41:03;;;;;;;12.77;12.18;;;;;;;;;;5023479;28;20175;-61
2024/01/11 08:43:28;;;;;;;12.38;11.82;;;;;;;;;;5035227;28;20029;-61
2024/01/11 08:45:54;;;;;;;12.63;12.02;;;;;;;;;;5029470;28;20052;-61
2024/01/11 08:48:19;;;;;;;12.70;12.10;;;;;;;;;;5034796;28;20168;-62
2024/01/11 08:50:44;;;;;;;13.00;12.40;;;;;;;;;;5024604;28;20194;-63
2024/01/11 08:53:10;;;;;;;12.45;11.85;;;;;;;;;;5031358;28;20049;-63
2024/01/11 08:55:35;;;;;;;12.70;12.10;;;;;;;;;;5025925;28;20026;-63
2024/01/11 08:58:00;;;;;;;13.25;12.65;;;;;;;;;;5024698;28;20572;-60
2024/01/11 09:00:26;;;;;;;12.60;12.00;;;;;;;;;;5017808;28;20071;-60
2024/01/11 09:02:51;;;;;;;12.60;12.00;;;;;;;;;;5030144;28;20021;-62
2024/01/11 09:05:17;;;;;;;12.25;11.75;;;;;;;;;;5030919;28;20100;-63
2024/01/11 09:07:42;;;;;;;12.90;12.30;;;;;;;;;;5031248;28;20025;-62
2024/01/11 09:10:13;;;;;;;12.82;12.23;;;;;;;;;;5021331;28;20022;-62
2024/01/11 09:12:39;;;;;;;12.65;12.05;;;;;;;;;;5021293;28;20059;-61
2024/01/11 09:15:04;;;;;;;12.70;12.10;;;;;;;;;;5023794;28;20033;-62
2024/01/11 09:17:29;;;;;;;12.80;12.20;;;;;;;;;;5019788;28;20042;-63
2024/01/11 09:19:55;;;;;;;13.02;12.43;;;;;;;;;;5028263;28;20052;-62
2024/01/11 09:22:20;;;;;;;13.10;12.50;;;;;;;;;;5038445;28;20439;-61
2024/01/11 09:24:46;;;;;;;12.98;12.38;;;;;;;;;;5027277;28;20034;-61
2024/01/11 09:27:11;;;;;;;12.95;12.35;;;;;;;;;;5021492;28;20033;-62
2024/01/11 09:29:41;;;;;;;13.05;12.45;;;;;;;;;;5030163;28;20388;-60
2024/01/11 09:32:07;;;;;;;13.85;13.25;;;;;;;;;;5033982;28;20428;-62
2024/01/11 09:34:32;;;;;;;13.10;12.50;;;;;;;;;;5026581;28;20097;-63
2024/01/11 09:36:58;;;;;;;13.38;12.77;;;;;;;;;;5030797;28;20025;-62
2024/01/11 09:39:25;;;;;;;13.20;12.60;;;;;;;;;;5014189;28;20028;-61
2024/01/11 09:42:09;;;;;;;13.32;12.73;;;;;;;;;;5028253;28;20022;-62
2024/01/11 09:44:37;;;;;;;13.57;12.98;;;;;;;;;;5029161;28;20503;-62
2024/01/11 09:47:03;;;;;;;13.55;12.93;;;;;;;;;;5017312;28;20030;-61
2024/01/11 09:49:30;;;;;;;13.65;12.95;;;;;;;;;;5029638;28;20083;-61
2024/01/11 09:51:56;;;;;;;13.85;13.15;;;;;;;;;;5026708;28;20378;-62
2024/01/11 09:54:23;;;;;;;13.15;12.55;;;;;;;;;;5036087;28;20056;-61
2024/01/11 09:56:50;;;;;;;13.20;12.55;;;;;;;;;;5031990;28;20049;-62
2024/01/11 09:59:17;;;;;;;12.45;11.85;;;;;;;;;;5032935;28;20067;-62
2024/01/11 10:01:43;;;;;;;12.73;12.13;;;;;;;;;;5024842;28;21537;-61
2024/01/11 10:04:09;;;;;;;13.35;12.65;;;;;;;;;;5034121;28;20025;-60
2024/01/11 10:06:36;;;;;;;13.10;12.40;;;;;;;;;;5033134;28;20174;-61
2024/01/11 10:09:02;;;;;;;13.20;12.50;;;;;;;;;;5031827;28;20028;-60
2024/01/11 10:11:27;;;;;;;12.43;11.82;;;;;;;;;;5026937;28;20064;-64
2024/01/11 10:13:56;;;;;;;13.02;12.32;;;;;;;;;;5025305;28;20460;-63
2024/01/11 10:16:22;;;;;;;12.70;12.10;;;;;;;;;;5029865;28;20021;-63
2024/01/11 10:18:47;;;;;;;12.07;11.48;;;;;;;;;;5029141;28;20410;-63
2024/01/11 10:21:13;;;;;;;13.13;12.43;;;;;;;;;;5029680;28;20029;-62
2024/01/11 10:23:39;;;;;;;12.85;12.20;;;;;;;;;;5031006;28;20037;-62
2024/01/11 10:26:07;;;;;;;12.18;11.57;;;;;;;;;;5029492;28;20087;-63
2024/01/11 10:28:36;;;;;;;12.93;12.23;;;;;;;;;;5027344;28;20109;-61
2024/01/11 10:31:01;;;;;;;11.55;11.00;;;;;;;;;;5039600;28;20132;-61
2024/01/11 10:33:27;;;;;;;12.32;11.73;;;;;;;;;;5018228;28;20018;-60
2024/01/11 10:35:52;;;;;;;12.00;11.40;;;;;;;;;;5024153;28;20022;-59
2024/01/11 10:38:17;;;;;;;12.27;11.68;;;;;;;;;;5023227;28;20599;-60
2024/01/11 10:40:43;;;;;;;13.30;12.60;;;;;;;;;;5024339;28;20061;-61
2024/01/11 10:43:11;;;;;;;12.98;12.27;;;;;;;;;;5028618;28;20496;-62
2024/01/11 10:45:38;;;;;;;11.10;10.60;;;;;;;;;;5027824;28;20047;-60
2024/01/11 10:48:07;;;;;;;11.70;11.10;;;;;;;;;;5024672;28;20021;-63
2024/01/11 10:50:39;;;;;;;11.77;11.18;;;;;;;;;;5033751;28;20037;-61
2024/01/11 10:53:14;;;;;;;13.02;12.32;;;;;;;;;;5025693;28;20026;-60
2024/01/11 10:55:41;;;;;;;12.70;12.00;;;;;;;;;;5030072;28;20032;-60
2024/01/11 10:58:06;;;;;;;13.65;12.85;;;;;;;;;;5027341;28;20025;-61
2024/01/11 11:00:34;;;;;;;13.60;12.90;;;;;;;;;;5026129;28;20444;-60
2024/01/11 11:03:00;;;;;;;13.05;12.35;;;;;;;;;;5033198;28;20674;-62
2024/01/11 11:05:26;;;;;;;11.68;11.07;;;;;;;;;;5026527;28;20099;-60
2024/01/11 11:07:52;;;;;;;12.10;11.50;;;;;;;;;;5028912;28;20033;-62
2024/01/11 11:10:19;;;;;;;12.73;12.02;;;;;;;;;;5032659;28;20453;-61
2024/01/11 11:12:45;;;;;;;12.57;11.88;;;;;;;;;;5024194;28;20129;-61
2024/01/11 11:15:11;;;;;;;12.80;12.10;;;;;;;;;;5027756;28;20195;-62
2024/01/11 11:17:36;;;;;;;12.85;12.15;;;;;;;;;;5028523;28;20091;-61
2024/01/11 11:20:02;;;;;;;12.43;11.80;;;;;;;;;;5035639;28;20438;-62
2024/01/11 11:22:27;;;;;;;12.70;12.02;;;;;;;;;;5036282;28;20032;-61
2024/01/11 11:25:11;;;;;;;12.60;11.90;;;;;;;;;;5034011;28;20095;-63
2024/01/11 11:27:37;;;;;;;12.43;11.75;;;;;;;;;;5032765;28;20037;-61
2024/01/11 11:30:04;;;;;;;11.65;11.05;;;;;;;;;;5032119;28;20079;-62
2024/01/11 11:32:36;;;;;;;12.00;11.40;;;;;;;;;;5029903;28;20025;-62
2024/01/11 11:35:02;;;;;;;12.95;12.25;;;;;;;;;;5032278;28;20121;-61
2024/01/11 11:37:29;;;;;;;12.85;12.15;;;;;;;;;;5028362;28;20044;-62
2024/01/11 11:39:54;;;;;;;12.75;12.05;;;;;;;;;;5026742;28;20029;-63
2024/01/11 11:42:22;;;;;;;12.15;11.55;;;;;;;;;;5032271;28;20044;-63
2024/01/11 11:44:50;;;;;;;12.20;11.60;;;;;;;;;;5027415;28;20041;-61
2024/01/11 11:47:22;;;;;;;12.23;11.63;;;;;;;;;;5028155;28;20025;-60
2024/01/11 11:50:17;;;;;;;12.30;11.70;;;;;;;;;;5037017;28;20063;-61
2024/01/11 11:52:44;;;;;;;11.80;11.20;;;;;;;;;;5024743;28;20032;-62
2024/01/11 11:55:10;;;;;;;11.50;10.90;;;;;;;;;;5029849;28;20030;-61
2024/01/11 11:57:36;;;;;;;12.05;11.45;;;;;;;;;;5036948;28;20392;-61
2024/01/11 12:00:06;;;;;;;12.50;11.80;;;;;;;;;;5028843;28;20025;-62
2024/01/11 12:02:31;;;;;;;12.15;11.55;;;;;;;;;;5030498;28;20031;-64
2024/01/11 12:04:57;;;;;;;12.88;12.18;;;;;;;;;;5033502;28;20018;-59
2024/01/11 12:07:23;;;;;;;12.52;11.82;;;;;;;;;;5029324;28;20029;-56
2024/01/11 12:09:48;;;;;;;11.73;11.13;;;;;;;;;;5032634;28;20028;-57
2024/01/11 12:12:14;;;;;;;12.15;11.55;;;;;;;;;;5032396;28;20028;-56
2024/01/11 12:14:41;;;;;;;12.45;11.75;;;;;;;;;;5030269;28;20056;-59
2024/01/11 12:17:06;;;;;;;13.40;12.60;;;;;;;;;;5024276;28;20048;-63
2024/01/11 12:19:32;;;;;;;11.82;11.23;;;;;;;;;;5032685;28;20029;-62
2024/01/11 12:21:58;;;;;;;11.75;11.15;;;;;;;;;;5031164;28;20489;-63
2024/01/11 12:24:23;;;;;;;11.45;10.85;;;;;;;;;;5035472;28;20033;-62
2024/01/11 12:26:50;;;;;;;11.93;11.32;;;;;;;;;;5031765;28;20342;-62
2024/01/11 12:29:18;;;;;;;12.40;11.73;;;;;;;;;;5033982;28;20036;-62
2024/01/11 12:31:46;;;;;;;12.63;11.93;;;;;;;;;;5024537;28;20021;-62
2024/01/11 12:34:12;;;;;;;12.88;12.18;;;;;;;;;;5032961;28;20017;-62
2024/01/11 12:36:37;;;;;;;11.73;11.13;;;;;;;;;;5033201;28;20077;-63
2024/01/11 12:39:05;;;;;;;12.70;12.00;;;;;;;;;;5029218;28;20042;-62
2024/01/11 12:41:30;;;;;;;12.38;11.68;;;;;;;;;;5027635;28;20056;-62
2024/01/11 12:43:56;;;;;;;11.82;11.23;;;;;;;;;;5028100;28;20053;-62
2024/01/11 12:46:22;;;;;;;12.60;11.90;;;;;;;;;;5031697;28;20033;-62
2024/01/11 12:48:48;;;;;;;11.10;10.60;;;;;;;;;;5031522;28;20025;-62
2024/01/11 12:51:15;;;;;;;11.73;11.13;;;;;;;;;;5029986;28;20032;-62
2024/01/11 12:53:40;;;;;;;11.68;11.07;;;;;;;;;;5029878;28;20028;-62
2024/01/11 12:56:10;;;;;;;13.98;13.18;;;;;;;;;;5028349;28;20034;-63
2024/01/11 12:58:40;;;;;;;11.45;10.85;;;;;;;;;;5022546;28;20017;-62
2024/01/11 13:01:08;;;;;;;12.40;11.70;;;;;;;;;;5022553;28;20418;-62
2024/01/11 13:03:34;;;;;;;11.00;10.50;;;;;;;;;;5029302;28;20025;-62
2024/01/11 13:05:59;;;;;;;11.63;11.02;;;;;;;;;;5031022;28;20059;-60
2024/01/11 13:08:27;;;;;;;12.35;11.70;;;;;;;;;;5029296;28;20020;-59
2024/01/11 13:10:52;;;;;;;11.95;11.35;;;;;;;;;;5023732;28;20026;-62
2024/01/11 13:13:18;;;;;;;11.82;11.23;;;;;;;;;;5022318;28;20060;-62
2024/01/11 13:15:43;;;;;;;11.93;11.32;;;;;;;;;;5029814;28;20017;-62
2024/01/11 13:18:09;;;;;;;12.32;11.63;;;;;;;;;;5021943;28;20050;-63
2024/01/11 13:20:34;;;;;;;11.27;10.70;;;;;;;;;;5021326;28;20033;-62
2024/01/11 13:23:13;;;;;;;11.45;10.85;;;;;;;;;;5020391;28;20022;-62
2024/01/11 13:25:39;;;;;;;11.27;10.73;;;;;;;;;;5028682;28;20033;-62
2024/01/11 13:28:06;;;;;;;11.32;10.73;;;;;;;;;;5029734;28;20124;-62
2024/01/11 13:30:31;;;;;;;11.23;10.65;;;;;;;;;;5027758;28;20104;-62
2024/01/11 13:32:57;;;;;;;11.32;10.73;;;;;;;;;;5031537;28;20131;-64
2024/01/11 13:35:22;;;;;;;10.80;10.30;;;;;;;;;;5026763;28;20053;-62
2024/01/11 13:37:47;;;;;;;10.95;10.45;;;;;;;;;;5030056;28;20084;-62
2024/01/11 13:40:13;;;;;;;11.30;10.70;;;;;;;;;;5030852;28;20033;-62
2024/01/11 13:42:39;;;;;;;11.38;10.77;;;;;;;;;;5024624;28;20397;-62
2024/01/11 13:45:07;;;;;;;11.25;10.68;;;;;;;;;;5041976;28;20022;-63
2024/01/11 13:47:32;;;;;;;11.15;10.65;;;;;;;;;;5026695;28;20029;-62
2024/01/11 13:49:57;;;;;;;11.95;11.35;;;;;;;;;;5030590;28;20389;-63
2024/01/11 13:52:23;;;;;;;11.80;11.20;;;;;;;;;;5028528;28;20030;-63
2024/01/11 13:54:48;;;;;;;12.07;11.48;;;;;;;;;;5029973;28;20629;-62
2024/01/11 13:57:14;;;;;;;11.30;10.73;;;;;;;;;;5037759;28;20503;-63
2024/01/11 13:59:39;;;;;;;11.73;11.13;;;;;;;;;;5027057;28;20034;-63
2024/01/11 14:02:04;;;;;;;11.68;11.07;;;;;;;;;;5029809;28;20021;-62
2024/01/11 14:04:30;;;;;;;12.45;11.77;;;;;;;;;;5031150;28;20060;-64
2024/01/11 14:06:55;;;;;;;11.82;11.23;;;;;;;;;;5037252;28;20056;-60
2024/01/11 14:09:21;;;;;;;12.50;11.80;;;;;;;;;;5029097;28;20038;-59
2024/01/11 14:11:48;;;;;;;12.60;11.90;;;;;;;;;;5017155;28;20072;-61